createdAt,value
2023-03-12T00:02:53.219Z,75.32
2023-03-12T00:05:56.786Z,75.55
2023-03-12T00:09:02.760Z,75.59
2023-03-12T00:12:06.561Z,74.76
2023-03-12T00:15:11.714Z,75.15
2023-03-12T00:18:15.934Z,75.39
2023-03-12T00:21:20.869Z,74.80
2023-03-12T00:24:24.364Z,75.40
2023-03-12T00:27:28.986Z,73.14
2023-03-12T00:30:32.098Z,73.16
2023-03-12T00:33:36.810Z,72.39
2023-03-12T00:36:42.071Z,72.60
2023-03-12T00:39:44.942Z,72.20
2023-03-12T00:42:48.767Z,72.58
2023-03-12T00:45:51.984Z,72.85
2023-03-12T00:48:55.669Z,71.48
2023-03-12T00:51:58.968Z,71.58
2023-03-12T00:55:02.249Z,71.28
2023-03-12T00:58:05.447Z,70.73
2023-03-12T01:01:08.417Z,70.75
2023-03-12T01:04:13.222Z,71.70
2023-03-12T01:07:17.188Z,70.13
2023-03-12T01:10:21.299Z,71.35
2023-03-12T01:13:24.701Z,69.81
2023-03-12T01:16:31.054Z,69.70
2023-03-12T01:19:37.441Z,68.84
2023-03-12T01:22:41.377Z,68.84
2023-03-12T01:25:44.374Z,68.55
2023-03-12T01:28:47.871Z,67.69
2023-03-12T01:31:51.630Z,67.97
2023-03-12T01:34:55.989Z,69.20
2023-03-12T01:37:59.940Z,69.16
2023-03-12T01:41:03.506Z,69.68
2023-03-12T01:44:07.207Z,72.49
2023-03-12T01:47:12.265Z,69.47
2023-03-12T01:50:15.664Z,70.81
2023-03-12T01:53:18.974Z,71.28
2023-03-12T01:56:23.262Z,71.43
2023-03-12T01:59:33.691Z,72.16
2023-03-12T02:02:37.873Z,72.12
2023-03-12T02:05:44.141Z,72.46
2023-03-12T02:08:48.775Z,72.58
2023-03-12T02:11:52.168Z,71.65
2023-03-12T02:14:55.261Z,73.77
2023-03-12T02:17:58.560Z,72.37
2023-03-12T02:21:08.189Z,72.83
2023-03-12T02:24:19.902Z,74.30
2023-03-12T02:27:23.284Z,73.83
2023-03-12T02:30:26.916Z,74.08
2023-03-12T02:33:30.216Z,75.33
2023-03-12T02:36:32.892Z,75.68
2023-03-12T02:39:36.891Z,77.26
2023-03-12T02:42:39.455Z,78.14
2023-03-12T02:45:42.341Z,78.43
2023-03-12T02:48:45.682Z,79.42
2023-03-12T02:51:50.376Z,80.65
2023-03-12T02:54:53.615Z,81.81
2023-03-12T02:57:56.502Z,82.06
2023-03-12T03:00:59.600Z,83.48
2023-03-12T03:04:03.352Z,84.05
2023-03-12T03:07:06.287Z,84.54
2023-03-12T03:10:10.065Z,84.92
2023-03-12T03:13:14.240Z,86.76
2023-03-12T03:16:17.687Z,86.43
2023-03-12T03:19:20.487Z,88.29
2023-03-12T03:22:23.661Z,87.96
2023-03-12T03:25:26.389Z,88.37
2023-03-12T03:28:30.669Z,88.39
2023-03-12T03:31:33.634Z,88.79
2023-03-12T03:34:36.486Z,87.97
2023-03-12T03:37:39.885Z,88.16
2023-03-12T03:40:43.039Z,88.82
2023-03-12T03:43:46.179Z,88.67
2023-03-12T03:46:49.166Z,86.93
2023-03-12T03:49:52.217Z,86.33
2023-03-12T03:52:55.256Z,85.56
2023-03-12T03:55:57.994Z,85.69
2023-03-12T03:59:03.097Z,85.66
2023-03-12T04:02:06.172Z,87.10
2023-03-12T04:05:09.960Z,86.06
2023-03-12T04:08:13.589Z,87.38
2023-03-12T04:11:17.385Z,88.89
2023-03-12T04:14:20.500Z,87.48
2023-03-12T04:17:24.199Z,87.56
2023-03-12T04:20:27.171Z,88.97
2023-03-12T04:23:29.957Z,91.21
2023-03-12T04:26:33.124Z,90.42
2023-03-12T04:29:40.107Z,92.25
2023-03-12T04:32:42.814Z,91.82
2023-03-12T04:35:54.529Z,92.72
2023-03-12T04:39:00.700Z,92.44
2023-03-12T04:42:04.052Z,93.03
2023-03-12T04:45:10.885Z,93.46
2023-03-12T04:48:14.191Z,93.40
2023-03-12T04:51:16.784Z,93.63
2023-03-12T04:54:21.648Z,93.19
2023-03-12T04:57:26.137Z,93.93
2023-03-12T05:00:29.886Z,96.56
2023-03-12T05:03:33.821Z,95.24
2023-03-12T05:06:36.434Z,95.39
2023-03-12T05:09:39.795Z,95.65
2023-03-12T05:12:43.952Z,96.66
2023-03-12T05:15:48.225Z,95.18
2023-03-12T05:18:50.915Z,94.68
2023-03-12T05:21:53.860Z,93.88
2023-03-12T05:24:56.683Z,93.60
2023-03-12T05:27:59.982Z,92.97
2023-03-12T05:31:13.548Z,92.11
2023-03-12T05:34:17.302Z,91.96
2023-03-12T05:37:20.011Z,90.62
2023-03-12T05:40:22.853Z,90.69
2023-03-12T05:43:27.601Z,91.14
2023-03-12T05:46:30.474Z,90.76
2023-03-12T05:49:33.876Z,89.38
2023-03-12T05:52:36.406Z,89.80
2023-03-12T05:55:40.265Z,88.66
2023-03-12T05:58:43.119Z,87.54
2023-03-12T06:01:46.404Z,87.29
2023-03-12T06:04:50.287Z,86.22
2023-03-12T06:07:53.605Z,86.37
2023-03-12T06:10:57.062Z,84.78
2023-03-12T06:13:59.788Z,74.79
2023-03-12T06:17:05.547Z,66.18
2023-03-12T06:20:10.340Z,59.13
2023-03-12T06:23:13.732Z,57.38
2023-03-12T06:26:18.090Z,59.29
2023-03-12T06:29:25.453Z,56.28
2023-03-12T06:32:29.843Z,51.77
2023-03-12T06:35:34.284Z,50.84
2023-03-12T06:38:38.992Z,53.83
2023-03-12T06:41:42.477Z,56.29
2023-03-12T06:44:47.319Z,55.82
2023-03-12T06:47:50.673Z,61.47
2023-03-12T06:50:54.476Z,64.01
2023-03-12T06:53:58.952Z,66.18
2023-03-12T06:57:03.169Z,66.86
2023-03-12T07:00:06.083Z,66.20
2023-03-12T07:03:10.333Z,66.88
2023-03-12T07:06:15.889Z,66.35
2023-03-12T07:09:20.312Z,66.37
2023-03-12T07:12:23.152Z,68.28
2023-03-12T07:15:25.996Z,66.38
2023-03-12T07:18:29.833Z,64.58
2023-03-12T07:21:32.985Z,64.27
2023-03-12T07:24:36.304Z,63.97
2023-03-12T07:27:39.599Z,64.25
2023-03-12T07:30:42.792Z,63.26
2023-03-12T07:33:46.212Z,61.80
2023-03-12T07:36:49.146Z,62.98
2023-03-12T07:39:53.471Z,63.57
2023-03-12T07:42:56.089Z,63.23
2023-03-12T07:45:59.023Z,63.03
2023-03-12T07:49:02.689Z,62.81
2023-03-12T07:52:05.614Z,62.27
2023-03-12T07:55:11.857Z,62.32
2023-03-12T07:58:16.306Z,62.57
2023-03-12T08:01:19.314Z,63.37
2023-03-12T08:04:23.153Z,61.57
2023-03-12T08:07:26.275Z,61.98
2023-03-12T08:10:29.081Z,61.22
2023-03-12T08:13:32.710Z,58.33
2023-03-12T08:16:36.330Z,57.93
2023-03-12T08:19:39.905Z,57.17
2023-03-12T08:22:42.811Z,57.78
2023-03-12T08:25:48.507Z,56.10
2023-03-12T08:28:52.021Z,57.17
2023-03-12T08:32:05.107Z,56.85
2023-03-12T08:35:11.094Z,54.80
2023-03-12T08:38:14.873Z,54.63
2023-03-12T08:41:18.861Z,53.69
2023-03-12T08:44:23.429Z,53.28
2023-03-12T08:47:26.176Z,52.95
2023-03-12T08:50:31.566Z,52.32
2023-03-12T08:53:35.466Z,51.83
2023-03-12T08:56:42.509Z,51.02
2023-03-12T08:59:46.024Z,51.35
2023-03-12T09:02:50.452Z,50.67
2023-03-12T09:06:03.954Z,50.82
2023-03-12T09:09:10.567Z,49.78
2023-03-12T09:12:13.414Z,50.53
2023-03-12T09:15:17.780Z,51.58
2023-03-12T09:18:22.570Z,51.71
2023-03-12T09:21:27.101Z,52.09
2023-03-12T09:24:30.516Z,49.83
2023-03-12T09:27:38.564Z,49.14
2023-03-12T09:30:44.590Z,51.31
2023-03-12T09:33:46.989Z,51.69
2023-03-12T09:36:50.138Z,49.63
2023-03-12T09:39:54.697Z,49.34
2023-03-12T09:43:03.720Z,48.59
2023-03-12T09:46:12.788Z,49.64
2023-03-12T09:49:20.645Z,46.48
2023-03-12T09:52:32.158Z,46.73
2023-03-12T09:55:40.237Z,46.21
2023-03-12T09:58:45.218Z,45.35
2023-03-12T10:01:53.912Z,47.80
2023-03-12T10:05:00.542Z,46.10
2023-03-12T10:08:23.540Z,45.38
2023-03-12T10:11:54.075Z,46.70
2023-03-12T10:15:15.731Z,47.68
2023-03-12T10:18:28.123Z,49.00
2023-03-12T10:21:38.274Z,44.34
2023-03-12T10:24:57.557Z,46.87
2023-03-12T10:28:13.544Z,42.95
2023-03-12T10:31:30.634Z,42.93
2023-03-12T10:34:51.687Z,40.87
2023-03-12T10:38:00.025Z,40.11
2023-03-12T10:41:12.822Z,38.96
2023-03-12T10:44:28.986Z,38.45
2023-03-12T10:47:40.309Z,37.19
2023-03-12T10:50:43.003Z,37.68
2023-03-12T10:53:48.545Z,36.27
2023-03-12T10:56:52.441Z,34.10
2023-03-12T11:00:08.553Z,31.86
2023-03-12T11:03:22.643Z,32.02
2023-03-12T11:06:30.860Z,32.35
2023-03-12T11:09:34.154Z,30.46
2023-03-12T11:12:38.244Z,30.28
2023-03-12T11:15:42.699Z,31.54
2023-03-12T11:19:00.819Z,32.78
2023-03-12T11:22:09.635Z,32.67
2023-03-12T11:25:24.410Z,29.20
2023-03-12T11:28:38.155Z,29.02
2023-03-12T11:31:47.356Z,29.83
2023-03-12T11:34:51.087Z,30.54
2023-03-12T11:38:17.274Z,31.09
2023-03-12T11:41:38.690Z,28.36
2023-03-12T11:44:57.039Z,27.43
2023-03-12T11:47:59.731Z,27.03
2023-03-12T11:51:11.525Z,25.80
2023-03-12T11:54:26.882Z,27.24
2023-03-12T11:57:50.329Z,26.11
2023-03-12T12:01:13.603Z,25.96
2023-03-12T12:04:35.421Z,24.62
2023-03-12T12:07:57.195Z,24.99
2023-03-12T12:11:20.945Z,24.57
2023-03-12T12:14:50.452Z,25.89
2023-03-12T12:17:56.340Z,27.70
2023-03-12T12:21:07.101Z,26.62
2023-03-12T12:24:32.733Z,26.20
2023-03-12T12:27:45.569Z,27.45
2023-03-12T12:30:55.705Z,28.09
2023-03-12T12:34:10.410Z,27.19
2023-03-12T12:37:25.941Z,27.66
2023-03-12T12:40:28.970Z,27.69
2023-03-12T12:43:35.831Z,26.52
2023-03-12T12:46:41.403Z,26.57
2023-03-12T12:49:46.853Z,25.78
2023-03-12T12:52:53.947Z,25.51
2023-03-12T12:56:03.283Z,26.46
2023-03-12T12:59:22.552Z,25.59
2023-03-12T13:02:29.842Z,25.20
2023-03-12T13:05:38.284Z,24.87
2023-03-12T13:08:41.155Z,24.63
2023-03-12T13:11:48.446Z,24.58
2023-03-12T13:14:52.870Z,24.54
2023-03-12T13:17:58.705Z,24.77
2023-03-12T13:21:15.864Z,26.65
2023-03-12T13:24:34.211Z,25.60
2023-03-12T13:27:39.425Z,26.25
2023-03-12T13:30:47.513Z,25.31
2023-03-12T13:33:51.882Z,25.48
2023-03-12T13:37:00.478Z,24.71
2023-03-12T13:40:10.013Z,25.52
2023-03-12T13:43:14.848Z,28.16
2023-03-12T13:46:17.601Z,25.56
2023-03-12T13:49:21.778Z,25.34
2023-03-12T13:52:31.401Z,26.88
2023-03-12T13:55:36.446Z,25.46
2023-03-12T13:58:48.463Z,27.91
2023-03-12T14:01:55.051Z,26.61
2023-03-12T14:05:06.389Z,24.79
2023-03-12T14:08:12.098Z,25.22
2023-03-12T14:11:24.980Z,24.33
2023-03-12T14:14:42.821Z,24.92
2023-03-12T14:17:47.555Z,24.38
2023-03-12T14:21:00.929Z,24.30
2023-03-12T14:24:06.025Z,24.53
2023-03-12T14:27:19.153Z,23.25
2023-03-12T14:30:26.408Z,22.60
2023-03-12T14:33:35.589Z,23.21
2023-03-12T14:36:51.171Z,24.44
2023-03-12T14:39:59.116Z,23.88
2023-03-12T14:43:01.600Z,23.74
2023-03-12T14:46:06.530Z,24.56
2023-03-12T14:49:11.066Z,25.26
2023-03-12T14:52:15.294Z,26.68
2023-03-12T14:55:23.758Z,28.28
2023-03-12T14:58:27.444Z,29.22
2023-03-12T15:01:32.816Z,28.59
2023-03-12T15:04:36.220Z,27.09
2023-03-12T15:07:40.138Z,27.96
2023-03-12T15:10:48.796Z,27.09
2023-03-12T15:13:53.376Z,27.86
2023-03-12T15:16:59.419Z,28.28
2023-03-12T15:20:11.105Z,27.66
2023-03-12T15:23:15.367Z,28.22
2023-03-12T15:26:22.077Z,28.22
2023-03-12T15:29:28.471Z,28.11
2023-03-12T15:32:32.707Z,29.40
2023-03-12T15:35:41.265Z,28.90
2023-03-12T15:38:49.294Z,30.25
2023-03-12T15:41:53.558Z,30.13
2023-03-12T15:45:00.664Z,27.99
2023-03-12T15:48:05.231Z,28.21
2023-03-12T15:51:17.211Z,29.38
2023-03-12T15:54:20.085Z,28.10
2023-03-12T15:57:26.211Z,28.24
2023-03-12T16:00:32.764Z,28.83
2023-03-12T16:03:35.647Z,29.46
2023-03-12T16:06:38.921Z,28.44
2023-03-12T16:09:42.937Z,28.67
2023-03-12T16:12:47.796Z,29.11
2023-03-12T16:15:51.881Z,30.41
2023-03-12T16:18:54.938Z,29.36
2023-03-12T16:21:59.742Z,29.91
2023-03-12T16:25:02.016Z,29.96
2023-03-12T16:28:06.744Z,31.22
2023-03-12T16:31:14.491Z,30.55
2023-03-12T16:34:18.018Z,31.59
2023-03-12T16:37:21.375Z,30.87
2023-03-12T16:40:33.378Z,31.58
2023-03-12T16:43:40.341Z,32.02
2023-03-12T16:46:46.882Z,33.25
2023-03-12T16:49:50.417Z,33.30
2023-03-12T16:52:53.402Z,33.41
2023-03-12T16:56:00.284Z,33.55
2023-03-12T16:59:06.728Z,33.76
2023-03-12T17:02:15.280Z,34.67
2023-03-12T17:05:18.270Z,34.95
2023-03-12T17:08:21.378Z,34.80
2023-03-12T17:11:27.621Z,36.05
2023-03-12T17:14:31.959Z,36.42
2023-03-12T17:17:35.993Z,36.16
2023-03-12T17:20:39.471Z,36.92
2023-03-12T17:23:43.089Z,36.70
2023-03-12T17:26:47.727Z,37.96
2023-03-12T17:29:53.357Z,37.43
2023-03-12T17:33:04.876Z,36.85
2023-03-12T17:36:10.716Z,37.58
2023-03-12T17:39:14.619Z,38.23
2023-03-12T17:42:19.437Z,38.16
2023-03-12T17:45:22.551Z,38.90
2023-03-12T17:48:25.315Z,41.22
2023-03-12T17:51:28.319Z,41.40
2023-03-12T17:54:31.490Z,41.20
2023-03-12T17:57:35.432Z,42.59
2023-03-12T18:00:38.596Z,42.83
2023-03-12T18:03:41.780Z,43.55
2023-03-12T18:06:44.563Z,44.53
2023-03-12T18:09:47.934Z,44.70
2023-03-12T18:12:52.748Z,45.84
2023-03-12T18:15:56.802Z,45.92
2023-03-12T18:19:00.999Z,46.99
2023-03-12T18:22:03.732Z,47.29
2023-03-12T18:25:07.510Z,48.05
2023-03-12T18:28:12.382Z,47.88
2023-03-12T18:31:15.915Z,48.56
2023-03-12T18:34:19.082Z,50.20
2023-03-12T18:37:22.844Z,49.72
2023-03-12T18:40:26.299Z,50.77
2023-03-12T18:43:30.546Z,50.69
2023-03-12T18:46:33.710Z,51.29
2023-03-12T18:49:37.623Z,53.88
2023-03-12T18:52:39.927Z,53.67
2023-03-12T18:55:51.511Z,53.55
2023-03-12T18:58:54.313Z,56.11
2023-03-12T19:01:57.142Z,55.58
2023-03-12T19:05:00.599Z,56.55
2023-03-12T19:08:06.236Z,56.67
2023-03-12T19:11:11.491Z,56.79
2023-03-12T19:14:14.765Z,57.88
2023-03-12T19:17:18.482Z,57.73
2023-03-12T19:20:22.616Z,58.24
2023-03-12T19:23:26.127Z,58.57
2023-03-12T19:26:31.492Z,58.77
2023-03-12T19:29:34.974Z,59.12
2023-03-12T19:32:43.751Z,60.25
2023-03-12T19:35:47.415Z,58.57
2023-03-12T19:38:51.026Z,60.09
2023-03-12T19:41:54.512Z,61.68
2023-03-12T19:44:57.414Z,58.74
2023-03-12T19:47:59.561Z,60.71
2023-03-12T19:51:06.147Z,61.40
2023-03-12T19:54:09.547Z,63.96
2023-03-12T19:57:12.834Z,61.59
2023-03-12T20:00:16.555Z,60.04
2023-03-12T20:03:21.184Z,60.51
2023-03-12T20:06:23.969Z,61.12
2023-03-12T20:09:26.753Z,62.11
2023-03-12T20:12:30.550Z,60.42
2023-03-12T20:15:34.862Z,61.67
2023-03-12T20:18:38.398Z,61.04
2023-03-12T20:21:42.782Z,61.50
2023-03-12T20:24:47.003Z,63.64
2023-03-12T20:27:51.335Z,62.23
2023-03-12T20:30:55.047Z,61.06
2023-03-12T20:33:58.542Z,62.53
2023-03-12T20:37:01.459Z,62.45
2023-03-12T20:40:06.287Z,63.66
2023-03-12T20:43:10.717Z,64.08
2023-03-12T20:46:14.285Z,64.25
2023-03-12T20:49:17.493Z,63.38
2023-03-12T20:52:20.580Z,64.05
2023-03-12T20:55:24.845Z,63.80
2023-03-12T20:58:28.746Z,66.21
2023-03-12T21:01:34.302Z,65.75
2023-03-12T21:04:38.631Z,65.69
2023-03-12T21:07:42.306Z,65.53
2023-03-12T21:10:44.881Z,64.07
2023-03-12T21:13:47.832Z,64.50
2023-03-12T21:16:53.190Z,64.98
2023-03-12T21:19:56.624Z,65.92
2023-03-12T21:22:59.670Z,65.86
2023-03-12T21:26:07.186Z,65.91
2023-03-12T21:29:12.875Z,67.12
2023-03-12T21:32:16.430Z,64.78
2023-03-12T21:35:21.906Z,62.11
2023-03-12T21:38:25.451Z,61.58
2023-03-12T21:41:29.259Z,61.47
2023-03-12T21:44:35.713Z,63.28
2023-03-12T21:47:38.931Z,63.30
2023-03-12T21:50:41.920Z,61.97
2023-03-12T21:53:45.330Z,57.62
2023-03-12T21:56:48.425Z,59.93
2023-03-12T21:59:53.030Z,57.55
2023-03-12T22:02:56.337Z,55.76
2023-03-12T22:05:59.539Z,57.61
2023-03-12T22:09:02.255Z,55.76
2023-03-12T22:12:05.826Z,56.10
2023-03-12T22:15:09.249Z,56.31
2023-03-12T22:18:12.800Z,55.01
2023-03-12T22:21:17.736Z,56.10
2023-03-12T22:24:21.353Z,54.48
2023-03-12T22:27:24.465Z,56.88
2023-03-12T22:30:27.655Z,56.43
2023-03-12T22:33:31.274Z,56.84
2023-03-12T22:36:34.670Z,55.20
2023-03-12T22:39:37.732Z,55.62
2023-03-12T22:42:41.475Z,54.10
2023-03-12T22:45:45.290Z,53.96
2023-03-12T22:48:49.702Z,54.96
2023-03-12T22:51:53.001Z,55.80
2023-03-12T22:54:55.585Z,56.51
2023-03-12T22:57:59.192Z,57.58
2023-03-12T23:01:02.373Z,56.67
2023-03-12T23:04:06.704Z,56.56
2023-03-12T23:07:16.246Z,54.35
2023-03-12T23:10:20.551Z,56.80
2023-03-12T23:13:24.586Z,57.53
2023-03-12T23:16:27.963Z,55.81
2023-03-12T23:19:35.293Z,56.38
2023-03-12T23:22:38.453Z,56.46
2023-03-12T23:25:41.481Z,56.55
2023-03-12T23:28:44.367Z,58.13
2023-03-12T23:31:46.901Z,57.32
2023-03-12T23:34:51.343Z,56.05
2023-03-12T23:37:57.707Z,56.87
2023-03-12T23:41:04.520Z,58.55
2023-03-12T23:44:07.282Z,58.44
2023-03-12T23:47:09.757Z,57.51
2023-03-12T23:50:13.100Z,57.41
2023-03-12T23:53:16.824Z,57.33
2023-03-12T23:56:21.513Z,58.41
2023-03-12T23:59:25.429Z,58.09
